To NAV CANADA Home Page Login to a new session Search on AWWS site Feedback and Comments Disclaimer Vers la page française équivalente Tips FAQ What's new on the site To the Forecasts and Observations / NOTAM section To "File a Flight Plan" website Publications and other links Update of the User's profile FIC Telephone Numbers My Weather Data Folder Route Weather Data Regional Weather Data Local Weather Data To the Forecasts and Observations / NOTAM section
Request Generated 09/03/2015 at 15:07:57 UTC . Weather information available at that time is displayed.

METAR/TAF

PRINCE ALBERT/PRINCE ALBERT (GLASS FIELD)/SK    

METAR CYPA 031500Z 30010KT 15SM SCT160 OVC250 14/09 A2979 RMK AC4CI4
PRESRR SLP096 DENSITY ALT 1700FT=
METAR CYPA 031400Z 30008KT 15SM FEW120 SCT180 BKN250 13/10 A2974 RMK
AC2AC2CI3 VIRGA E SLP079 DENSITY ALT 1700FT=
METAR CYPA 031300Z 29007KT 15SM FEW130 BKN220 13/10 A2974 RMK AC2CI5
SLP078 DENSITY ALT 1600FT=

TAF CYPA 031238Z 0313/0401 29012KT P6SM BKN130 BKN250
RMK NXT FCST BY 031900Z=
Your time UTC time
Weather data provided by Environment Canada and NAV CANADA